sensor_id;sensor_type;location;lat;lon;timestamp;pressure;altitude;pressure_sealevel;temperature;humidity
50011;BME280;35899;50.352;19.390;2022-10-15T00:01:11;97735.02;;;8.27;86.05
50011;BME280;35899;50.352;19.390;2022-10-15T00:03:41;97740.28;;;8.25;86.02
50011;BME280;35899;50.352;19.390;2022-10-15T00:06:12;97732.63;;;8.23;86.12
50011;BME280;35899;50.352;19.390;2022-10-15T00:08:42;97738.27;;;8.23;86.07
50011;BME280;35899;50.352;19.390;2022-10-15T00:11:12;97738.36;;;8.21;86.03
50011;BME280;35899;50.352;19.390;2022-10-15T00:13:42;97736.80;;;8.19;86.00
50011;BME280;35899;50.352;19.390;2022-10-15T00:16:14;97741.98;;;8.19;86.16
50011;BME280;35899;50.352;19.390;2022-10-15T00:18:43;97741.32;;;8.22;86.74
50011;BME280;35899;50.352;19.390;2022-10-15T00:21:14;97728.74;;;8.23;86.90
50011;BME280;35899;50.352;19.390;2022-10-15T00:23:42;97731.14;;;8.27;87.00
50011;BME280;35899;50.352;19.390;2022-10-15T00:26:15;97730.20;;;8.28;87.07
50011;BME280;35899;50.352;19.390;2022-10-15T00:28:44;97721.06;;;8.29;87.04
50011;BME280;35899;50.352;19.390;2022-10-15T00:31:15;97721.87;;;8.30;87.05
50011;BME280;35899;50.352;19.390;2022-10-15T00:33:45;97719.67;;;8.31;87.10
50011;BME280;35899;50.352;19.390;2022-10-15T00:36:17;97716.88;;;8.34;87.19
50011;BME280;35899;50.352;19.390;2022-10-15T00:38:45;97718.36;;;8.38;87.15
50011;BME280;35899;50.352;19.390;2022-10-15T00:41:18;97711.89;;;8.38;86.82
50011;BME280;35899;50.352;19.390;2022-10-15T00:43:51;97708.92;;;8.37;86.60
50011;BME280;35899;50.352;19.390;2022-10-15T00:46:36;97707.37;;;8.34;86.37
50011;BME280;35899;50.352;19.390;2022-10-15T00:49:19;97702.39;;;8.31;86.14
50011;BME280;35899;50.352;19.390;2022-10-15T00:52:01;97701.19;;;8.30;86.06
50011;BME280;35899;50.352;19.390;2022-10-15T00:54:33;97707.40;;;8.27;86.07
50011;BME280;35899;50.352;19.390;2022-10-15T00:57:04;97707.14;;;8.25;86.04
50011;BME280;35899;50.352;19.390;2022-10-15T01:02:06;97706.77;;;8.23;86.10
50011;BME280;35899;50.352;19.390;2022-10-15T01:04:34;97701.03;;;8.26;86.35
50011;BME280;35899;50.352;19.390;2022-10-15T01:07:02;97694.09;;;8.26;86.07
50011;BME280;35899;50.352;19.390;2022-10-15T01:09:29;97692.80;;;8.26;86.21
50011;BME280;35899;50.352;19.390;2022-10-15T01:11:57;97690.13;;;8.28;86.37
50011;BME280;35899;50.352;19.390;2022-10-15T01:29:57;97674.73;;;8.46;87.26
50011;BME280;35899;50.352;19.390;2022-10-15T01:32:40;97671.20;;;8.47;87.17
50011;BME280;35899;50.352;19.390;2022-10-15T01:38:18;97670.61;;;8.44;87.19
50011;BME280;35899;50.352;19.390;2022-10-15T01:40:58;97671.23;;;8.40;86.92
50011;BME280;35899;50.352;19.390;2022-10-15T01:43:35;97667.73;;;8.34;86.75
50011;BME280;35899;50.352;19.390;2022-10-15T01:46:25;97672.97;;;8.27;86.56
50011;BME280;35899;50.352;19.390;2022-10-15T01:49:02;97665.23;;;8.19;86.48
50011;BME280;35899;50.352;19.390;2022-10-15T01:51:33;97666.93;;;8.13;86.39
50011;BME280;35899;50.352;19.390;2022-10-15T01:54:04;97664.18;;;8.09;86.45
50011;BME280;35899;50.352;19.390;2022-10-15T01:56:35;97663.98;;;8.05;86.57
50011;BME280;35899;50.352;19.390;2022-10-15T01:59:04;97667.86;;;8.05;86.75
50011;BME280;35899;50.352;19.390;2022-10-15T02:01:33;97667.14;;;8.03;86.80
50011;BME280;35899;50.352;19.390;2022-10-15T02:04:00;97658.66;;;8.01;86.92
50011;BME280;35899;50.352;19.390;2022-10-15T02:06:38;97660.89;;;8.00;86.99
50011;BME280;35899;50.352;19.390;2022-10-15T02:18:59;97657.83;;;8.00;87.65
50011;BME280;35899;50.352;19.390;2022-10-15T02:24:19;97652.28;;;7.99;87.55
50011;BME280;35899;50.352;19.390;2022-10-15T02:26:50;97649.83;;;7.98;87.49
50011;BME280;35899;50.352;19.390;2022-10-15T02:29:21;97645.82;;;7.99;87.59
50011;BME280;35899;50.352;19.390;2022-10-15T02:31:52;97646.77;;;7.98;87.41
50011;BME280;35899;50.352;19.390;2022-10-15T02:34:25;97637.25;;;7.99;87.59
50011;BME280;35899;50.352;19.390;2022-10-15T02:37:01;97631.52;;;8.01;87.63
50011;BME280;35899;50.352;19.390;2022-10-15T02:39:29;97633.09;;;8.03;87.85
50011;BME280;35899;50.352;19.390;2022-10-15T02:41:58;97630.38;;;8.05;87.97
50011;BME280;35899;50.352;19.390;2022-10-15T02:44:28;97631.58;;;8.07;88.21
50011;BME280;35899;50.352;19.390;2022-10-15T02:46:56;97628.91;;;8.08;88.29
50011;BME280;35899;50.352;19.390;2022-10-15T02:49:25;97626.23;;;8.10;88.38
50011;BME280;35899;50.352;19.390;2022-10-15T02:51:52;97619.77;;;8.10;88.36
50011;BME280;35899;50.352;19.390;2022-10-15T02:54:19;97625.75;;;8.10;88.35
50011;BME280;35899;50.352;19.390;2022-10-15T02:56:46;97629.16;;;8.11;88.55
50011;BME280;35899;50.352;19.390;2022-10-15T02:59:15;97627.42;;;8.11;88.47
50011;BME280;35899;50.352;19.390;2022-10-15T03:01:44;97618.38;;;8.11;88.47
50011;BME280;35899;50.352;19.390;2022-10-15T03:04:12;97621.69;;;8.13;88.50
50011;BME280;35899;50.352;19.390;2022-10-15T03:06:40;97614.66;;;8.15;88.66
50011;BME280;35899;50.352;19.390;2022-10-15T03:09:07;97610.56;;;8.18;88.79
50011;BME280;35899;50.352;19.390;2022-10-15T03:11:34;97610.56;;;8.18;88.95
50011;BME280;35899;50.352;19.390;2022-10-15T03:14:02;97611.86;;;8.18;88.79
50011;BME280;35899;50.352;19.390;2022-10-15T03:16:29;97609.74;;;8.18;88.74
50011;BME280;35899;50.352;19.390;2022-10-15T03:18:56;97611.12;;;8.16;88.58
50011;BME280;35899;50.352;19.390;2022-10-15T03:21:23;97611.70;;;8.14;88.56
50011;BME280;35899;50.352;19.390;2022-10-15T03:23:52;97612.83;;;8.10;88.61
50011;BME280;35899;50.352;19.390;2022-10-15T03:26:22;97613.20;;;8.11;88.81
50011;BME280;35899;50.352;19.390;2022-10-15T03:28:49;97613.94;;;8.13;89.00
50011;BME280;35899;50.352;19.390;2022-10-15T03:31:18;97602.08;;;8.16;89.28
50011;BME280;35899;50.352;19.390;2022-10-15T03:33:46;97602.36;;;8.19;89.17
50011;BME280;35899;50.352;19.390;2022-10-15T03:36:15;97592.47;;;8.18;89.15
50011;BME280;35899;50.352;19.390;2022-10-15T03:38:42;97590.09;;;8.15;88.95
50011;BME280;35899;50.352;19.390;2022-10-15T03:41:11;97592.15;;;8.10;88.64
50011;BME280;35899;50.352;19.390;2022-10-15T03:43:40;97591.61;;;8.05;88.56
50011;BME280;35899;50.352;19.390;2022-10-15T03:46:07;97585.94;;;8.00;88.44
50011;BME280;35899;50.352;19.390;2022-10-15T03:48:37;97590.56;;;7.95;88.66
50011;BME280;35899;50.352;19.390;2022-10-15T03:51:04;97590.75;;;7.92;88.59
50011;BME280;35899;50.352;19.390;2022-10-15T03:53:31;97589.58;;;7.90;88.92
50011;BME280;35899;50.352;19.390;2022-10-15T03:56:05;97589.20;;;7.89;89.19
50011;BME280;35899;50.352;19.390;2022-10-15T03:58:33;97591.88;;;7.88;89.06
50011;BME280;35899;50.352;19.390;2022-10-15T04:01:08;97589.86;;;7.86;88.89
50011;BME280;35899;50.352;19.390;2022-10-15T04:03:36;97589.61;;;7.83;89.22
50011;BME280;35899;50.352;19.390;2022-10-15T04:06:03;97589.32;;;7.80;89.10
50011;BME280;35899;50.352;19.390;2022-10-15T04:08:31;97585.66;;;7.77;88.81
50011;BME280;35899;50.352;19.390;2022-10-15T04:10:58;97585.84;;;7.74;88.88
50011;BME280;35899;50.352;19.390;2022-10-15T04:13:27;97578.75;;;7.71;88.75
50011;BME280;35899;50.352;19.390;2022-10-15T04:15:55;97578.88;;;7.69;89.05
50011;BME280;35899;50.352;19.390;2022-10-15T04:18:22;97580.27;;;7.68;89.16
50011;BME280;35899;50.352;19.390;2022-10-15T04:20:51;97586.81;;;7.66;89.29
50011;BME280;35899;50.352;19.390;2022-10-15T04:23:19;97575.94;;;7.61;89.05
50011;BME280;35899;50.352;19.390;2022-10-15T04:25:48;97572.63;;;7.59;89.18
50011;BME280;35899;50.352;19.390;2022-10-15T04:28:17;97574.00;;;7.57;89.37
50011;BME280;35899;50.352;19.390;2022-10-15T04:30:45;97571.64;;;7.54;89.29
50011;BME280;35899;50.352;19.390;2022-10-15T04:33:12;97572.20;;;7.52;89.37
50011;BME280;35899;50.352;19.390;2022-10-15T04:35:40;97563.51;;;7.53;89.97
50011;BME280;35899;50.352;19.390;2022-10-15T04:38:11;97561.30;;;7.54;89.88
50011;BME280;35899;50.352;19.390;2022-10-15T04:41:04;97566.09;;;7.53;90.02
50011;BME280;35899;50.352;19.390;2022-10-15T04:43:41;97567.95;;;7.51;90.20
50011;BME280;35899;50.352;19.390;2022-10-15T04:46:08;97566.48;;;7.47;90.00
50011;BME280;35899;50.352;19.390;2022-10-15T04:48:37;97565.20;;;7.47;89.98
50011;BME280;35899;50.352;19.390;2022-10-15T04:51:12;97564.94;;;7.44;89.80
50011;BME280;35899;50.352;19.390;2022-10-15T04:54:01;97552.03;;;7.44;90.15
50011;BME280;35899;50.352;19.390;2022-10-15T04:56:29;97553.41;;;7.43;89.94
50011;BME280;35899;50.352;19.390;2022-10-15T04:58:56;97550.92;;;7.41;89.87
50011;BME280;35899;50.352;19.390;2022-10-15T05:01:25;97554.79;;;7.41;90.02
50011;BME280;35899;50.352;19.390;2022-10-15T05:03:54;97549.16;;;7.42;90.11
50011;BME280;35899;50.352;19.390;2022-10-15T05:06:21;97550.45;;;7.42;90.18
50011;BME280;35899;50.352;19.390;2022-10-15T05:08:51;97553.87;;;7.42;89.94
50011;BME280;35899;50.352;19.390;2022-10-15T05:11:24;97554.79;;;7.41;89.96
50011;BME280;35899;50.352;19.390;2022-10-15T05:13:57;97548.90;;;7.39;89.78
50011;BME280;35899;50.352;19.390;2022-10-15T05:16:26;97549.37;;;7.39;89.86
50011;BME280;35899;50.352;19.390;2022-10-15T05:21:30;97548.34;;;7.41;90.20
50011;BME280;35899;50.352;19.390;2022-10-15T05:24:03;97553.20;;;7.46;90.39
50011;BME280;35899;50.352;19.390;2022-10-15T05:26:48;97553.83;;;7.50;90.39
50011;BME280;35899;50.352;19.390;2022-10-15T05:29:15;97556.58;;;7.54;90.20
50011;BME280;35899;50.352;19.390;2022-10-15T05:31:42;97556.66;;;7.59;90.27
50011;BME280;35899;50.352;19.390;2022-10-15T05:34:17;97551.94;;;7.66;90.36
50011;BME280;35899;50.352;19.390;2022-10-15T05:36:46;97551.79;;;7.75;90.44
50011;BME280;35899;50.352;19.390;2022-10-15T05:39:14;97552.23;;;7.81;90.43
50011;BME280;35899;50.352;19.390;2022-10-15T05:41:43;97555.14;;;7.90;90.40
50011;BME280;35899;50.352;19.390;2022-10-15T05:44:11;97553.72;;;7.98;90.39
50011;BME280;35899;50.352;19.390;2022-10-15T05:46:38;97553.22;;;8.06;90.32
50011;BME280;35899;50.352;19.390;2022-10-15T05:49:05;97547.80;;;8.16;90.42
50011;BME280;35899;50.352;19.390;2022-10-15T05:51:34;97554.13;;;8.25;90.32
50011;BME280;35899;50.352;19.390;2022-10-15T05:54:04;97557.83;;;8.34;90.28
50011;BME280;35899;50.352;19.390;2022-10-15T05:56:31;97562.42;;;8.43;90.18
50011;BME280;35899;50.352;19.390;2022-10-15T05:58:58;97562.76;;;8.51;90.07
50011;BME280;35899;50.352;19.390;2022-10-15T06:01:26;97561.28;;;8.60;89.87
50011;BME280;35899;50.352;19.390;2022-10-15T06:03:53;97569.25;;;8.70;89.85
50011;BME280;35899;50.352;19.390;2022-10-15T06:06:22;97562.53;;;8.80;89.72
50011;BME280;35899;50.352;19.390;2022-10-15T06:08:52;97565.55;;;8.92;89.61
50011;BME280;35899;50.352;19.390;2022-10-15T06:11:20;97569.99;;;9.03;89.57
50011;BME280;35899;50.352;19.390;2022-10-15T06:13:47;97572.97;;;9.10;89.54
50011;BME280;35899;50.352;19.390;2022-10-15T06:16:15;97575.29;;;9.20;89.58
50011;BME280;35899;50.352;19.390;2022-10-15T06:18:43;97574.03;;;9.26;89.37
50011;BME280;35899;50.352;19.390;2022-10-15T06:21:11;97573.83;;;9.34;89.42
50011;BME280;35899;50.352;19.390;2022-10-15T06:23:38;97576.11;;;9.39;89.17
50011;BME280;35899;50.352;19.390;2022-10-15T06:26:07;97576.73;;;9.43;89.14
50011;BME280;35899;50.352;19.390;2022-10-15T06:28:36;97566.27;;;9.50;89.20
50011;BME280;35899;50.352;19.390;2022-10-15T06:31:04;97575.50;;;9.54;89.14
50011;BME280;35899;50.352;19.390;2022-10-15T06:33:32;97575.26;;;9.57;89.04
50011;BME280;35899;50.352;19.390;2022-10-15T06:36:06;97575.39;;;9.61;88.90
50011;BME280;35899;50.352;19.390;2022-10-15T06:38:34;97573.89;;;9.64;88.81
50011;BME280;35899;50.352;19.390;2022-10-15T06:41:06;97574.26;;;9.71;88.89
50011;BME280;35899;50.352;19.390;2022-10-15T06:43:34;97573.59;;;9.80;89.15
50011;BME280;35899;50.352;19.390;2022-10-15T06:46:04;97577.30;;;9.89;88.98
50011;BME280;35899;50.352;19.390;2022-10-15T06:48:32;97584.41;;;9.98;88.91
50011;BME280;35899;50.352;19.390;2022-10-15T06:50:59;97576.67;;;10.09;88.93
50011;BME280;35899;50.352;19.390;2022-10-15T06:53:28;97582.02;;;10.25;88.87
50011;BME280;35899;50.352;19.390;2022-10-15T06:58:29;97575.50;;;10.77;89.14
50011;BME280;35899;50.352;19.390;2022-10-15T07:01:04;97580.36;;;10.99;89.30
50011;BME280;35899;50.352;19.390;2022-10-15T07:03:32;97574.09;;;11.18;89.47
50011;BME280;35899;50.352;19.390;2022-10-15T07:06:04;97573.20;;;11.40;89.64
50011;BME280;35899;50.352;19.390;2022-10-15T07:08:32;97580.36;;;11.59;89.74
50011;BME280;35899;50.352;19.390;2022-10-15T07:11:02;97584.02;;;11.68;89.32
50011;BME280;35899;50.352;19.390;2022-10-15T07:13:30;97581.86;;;11.79;89.28
50011;BME280;35899;50.352;19.390;2022-10-15T07:16:04;97588.69;;;11.91;89.11
50011;BME280;35899;50.352;19.390;2022-10-15T07:18:35;97594.91;;;12.05;89.12
50011;BME280;35899;50.352;19.390;2022-10-15T07:21:04;97587.59;;;12.20;89.16
50011;BME280;35899;50.352;19.390;2022-10-15T07:23:32;97593.17;;;12.42;89.19
50011;BME280;35899;50.352;19.390;2022-10-15T07:26:00;97592.05;;;12.50;88.86
50011;BME280;35899;50.352;19.390;2022-10-15T07:28:28;97594.58;;;12.62;88.76
50011;BME280;35899;50.352;19.390;2022-10-15T07:31:04;97596.12;;;12.80;88.71
50011;BME280;35899;50.352;19.390;2022-10-15T07:33:32;97592.59;;;12.90;88.44
50011;BME280;35899;50.352;19.390;2022-10-15T07:36:04;97601.25;;;13.06;88.12
50011;BME280;35899;50.352;19.390;2022-10-15T07:38:34;97596.59;;;13.25;88.00
50011;BME280;35899;50.352;19.390;2022-10-15T07:41:03;97592.50;;;13.48;87.79
50011;BME280;35899;50.352;19.390;2022-10-15T07:43:32;97595.20;;;13.72;87.42
50011;BME280;35899;50.352;19.390;2022-10-15T07:46:00;97585.87;;;13.98;87.46
50011;BME280;35899;50.352;19.390;2022-10-15T07:48:28;97596.45;;;14.26;87.38
50011;BME280;35899;50.352;19.390;2022-10-15T07:50:58;97592.30;;;14.53;87.37
50011;BME280;35899;50.352;19.390;2022-10-15T07:53:27;97594.39;;;14.73;87.45
50011;BME280;35899;50.352;19.390;2022-10-15T07:56:03;97596.07;;;14.88;87.13
50011;BME280;35899;50.352;19.390;2022-10-15T07:58:34;97593.28;;;14.99;86.35
50011;BME280;35899;50.352;19.390;2022-10-15T08:01:08;97592.47;;;15.12;85.47
50011;BME280;35899;50.352;19.390;2022-10-15T08:03:37;97595.89;;;15.27;84.78
50011;BME280;35899;50.352;19.390;2022-10-15T08:06:06;97586.80;;;15.44;83.74
50011;BME280;35899;50.352;19.390;2022-10-15T08:08:34;97580.05;;;15.56;82.76
50011;BME280;35899;50.352;19.390;2022-10-15T08:13:37;97587.50;;;15.96;82.56
50011;BME280;35899;50.352;19.390;2022-10-15T08:16:07;97588.77;;;16.10;81.37
50011;BME280;35899;50.352;19.390;2022-10-15T08:18:35;97586.05;;;16.20;80.68
50011;BME280;35899;50.352;19.390;2022-10-15T08:21:04;97586.14;;;16.28;79.73
50011;BME280;35899;50.352;19.390;2022-10-15T08:23:32;97586.19;;;16.36;79.25
50011;BME280;35899;50.352;19.390;2022-10-15T08:26:00;97575.77;;;16.45;78.15
50011;BME280;35899;50.352;19.390;2022-10-15T08:28:28;97581.25;;;16.55;77.53
50011;BME280;35899;50.352;19.390;2022-10-15T08:30:58;97583.74;;;16.61;77.27
50011;BME280;35899;50.352;19.390;2022-10-15T08:33:27;97578.88;;;16.66;75.46
50011;BME280;35899;50.352;19.390;2022-10-15T08:35:54;97583.19;;;16.75;76.47
50011;BME280;35899;50.352;19.390;2022-10-15T08:38:21;97588.15;;;16.83;75.40
50011;BME280;35899;50.352;19.390;2022-10-15T08:40:53;97588.36;;;16.89;75.54
50011;BME280;35899;50.352;19.390;2022-10-15T08:45:57;97591.50;;;16.93;73.26
50011;BME280;35899;50.352;19.390;2022-10-15T08:51:09;97591.52;;;16.97;72.79
50011;BME280;35899;50.352;19.390;2022-10-15T08:53:48;97606.47;;;17.05;72.58
50011;BME280;35899;50.352;19.390;2022-10-15T08:56:29;97602.91;;;17.14;72.72
50011;BME280;35899;50.352;19.390;2022-10-15T08:59:00;97604.75;;;17.26;72.56
50011;BME280;35899;50.352;19.390;2022-10-15T09:01:54;97597.91;;;17.33;72.16
50011;BME280;35899;50.352;19.390;2022-10-15T09:04:25;97597.93;;;17.45;71.95
50011;BME280;35899;50.352;19.390;2022-10-15T09:07:06;97606.81;;;17.52;70.47
50011;BME280;35899;50.352;19.390;2022-10-15T09:09:41;97604.20;;;17.61;70.76
50011;BME280;35899;50.352;19.390;2022-10-15T09:15:03;97611.48;;;17.83;70.24
50011;BME280;35899;50.352;19.390;2022-10-15T09:17:32;97613.98;;;17.89;69.68
50011;BME280;35899;50.352;19.390;2022-10-15T09:20:04;97619.35;;;17.83;69.27
50011;BME280;35899;50.352;19.390;2022-10-15T09:22:33;97623.02;;;17.86;68.91
50011;BME280;35899;50.352;19.390;2022-10-15T09:25:13;97617.61;;;17.88;68.50
50011;BME280;35899;50.352;19.390;2022-10-15T09:27:50;97617.42;;;17.85;68.20
50011;BME280;35899;50.352;19.390;2022-10-15T09:30:41;97621.86;;;17.85;67.86
50011;BME280;35899;50.352;19.390;2022-10-15T09:39:35;97614.09;;;17.79;67.14
50011;BME280;35899;50.352;19.390;2022-10-15T09:45:04;97623.04;;;18.31;66.51
50011;BME280;35899;50.352;19.390;2022-10-15T09:47:34;97623.87;;;18.56;65.95
50011;BME280;35899;50.352;19.390;2022-10-15T09:50:03;97627.93;;;18.96;66.26
50011;BME280;35899;50.352;19.390;2022-10-15T10:01:01;97627.39;;;19.13;64.47
50011;BME280;35899;50.352;19.390;2022-10-15T10:03:34;97628.58;;;19.06;64.39
50011;BME280;35899;50.352;19.390;2022-10-15T10:06:10;97628.22;;;19.18;64.55
50011;BME280;35899;50.352;19.390;2022-10-15T10:08:54;97625.06;;;19.62;64.31
50011;BME280;35899;50.352;19.390;2022-10-15T10:11:24;97623.05;;;20.45;62.73
50011;BME280;35899;50.352;19.390;2022-10-15T10:13:57;97612.48;;;21.17;61.39
50011;BME280;35899;50.352;19.390;2022-10-15T10:16:26;97613.30;;;21.95;60.29
50011;BME280;35899;50.352;19.390;2022-10-15T10:19:15;97616.30;;;22.67;58.56
50011;BME280;35899;50.352;19.390;2022-10-15T10:21:43;97617.25;;;23.33;57.44
50011;BME280;35899;50.352;19.390;2022-10-15T10:24:29;97612.61;;;24.10;56.59
50011;BME280;35899;50.352;19.390;2022-10-15T10:26:59;97617.94;;;24.17;53.49
50011;BME280;35899;50.352;19.390;2022-10-15T10:29:38;97618.11;;;23.47;53.29
50011;BME280;35899;50.352;19.390;2022-10-15T10:31:59;97621.31;;;22.83;51.57
50011;BME280;35899;50.352;19.390;2022-10-15T10:34:47;97620.50;;;22.01;52.66
50011;BME280;35899;50.352;19.390;2022-10-15T10:37:14;97615.19;;;21.39;53.97
50011;BME280;35899;50.352;19.390;2022-10-15T10:39:42;97616.16;;;20.97;53.67
50011;BME280;35899;50.352;19.390;2022-10-15T10:44:48;97619.94;;;20.00;54.69
50011;BME280;35899;50.352;19.390;2022-10-15T10:49:57;97625.55;;;19.26;55.48
50011;BME280;35899;50.352;19.390;2022-10-15T10:52:27;97632.23;;;18.93;56.44
50011;BME280;35899;50.352;19.390;2022-10-15T10:55:15;97630.76;;;18.70;56.40
50011;BME280;35899;50.352;19.390;2022-10-15T10:57:52;97626.17;;;18.47;56.62
50011;BME280;35899;50.352;19.390;2022-10-15T11:00:42;97633.55;;;18.27;56.74
50011;BME280;35899;50.352;19.390;2022-10-15T11:03:42;97630.92;;;18.15;57.46
50011;BME280;35899;50.352;19.390;2022-10-15T11:15:25;97633.52;;;17.94;58.64
50011;BME280;35899;50.352;19.390;2022-10-15T11:29:34;97628.80;;;18.31;59.47
50011;BME280;35899;50.352;19.390;2022-10-15T11:32:23;97633.55;;;18.56;59.48
50011;BME280;35899;50.352;19.390;2022-10-15T11:41:17;97617.70;;;19.09;58.07
50011;BME280;35899;50.352;19.390;2022-10-15T12:01:51;97610.55;;;18.70;57.65
50011;BME280;35899;50.352;19.390;2022-10-15T12:07:29;97616.77;;;18.69;57.95
50011;BME280;35899;50.352;19.390;2022-10-15T12:12:46;97620.41;;;18.52;57.97
50011;BME280;35899;50.352;19.390;2022-10-15T12:18:42;97621.07;;;18.29;57.91
50011;BME280;35899;50.352;19.390;2022-10-15T12:27:26;97621.42;;;18.47;58.60
50011;BME280;35899;50.352;19.390;2022-10-15T12:32:42;97618.45;;;18.50;57.72
50011;BME280;35899;50.352;19.390;2022-10-15T12:35:18;97614.69;;;18.52;57.38
50011;BME280;35899;50.352;19.390;2022-10-15T12:37:48;97607.74;;;18.64;58.11
50011;BME280;35899;50.352;19.390;2022-10-15T12:40:25;97610.22;;;18.73;57.20
50011;BME280;35899;50.352;19.390;2022-10-15T12:43:00;97608.41;;;18.62;57.46
50011;BME280;35899;50.352;19.390;2022-10-15T12:45:35;97606.30;;;18.53;57.24
50011;BME280;35899;50.352;19.390;2022-10-15T12:48:17;97603.86;;;18.39;56.90
50011;BME280;35899;50.352;19.390;2022-10-15T12:50:42;97602.37;;;18.28;56.62
50011;BME280;35899;50.352;19.390;2022-10-15T12:53:29;97596.45;;;18.30;56.42
50011;BME280;35899;50.352;19.390;2022-10-15T13:03:52;97600.62;;;19.05;56.27
50011;BME280;35899;50.352;19.390;2022-10-15T13:08:58;97606.14;;;19.23;55.77
50011;BME280;35899;50.352;19.390;2022-10-15T13:11:45;97603.89;;;19.16;55.78
50011;BME280;35899;50.352;19.390;2022-10-15T13:14:26;97605.07;;;19.05;55.72
50011;BME280;35899;50.352;19.390;2022-10-15T13:17:01;97601.98;;;18.85;55.68
50011;BME280;35899;50.352;19.390;2022-10-15T13:22:25;97605.16;;;18.47;56.05
50011;BME280;35899;50.352;19.390;2022-10-15T13:24:54;97600.72;;;18.23;56.66
50011;BME280;35899;50.352;19.390;2022-10-15T13:27:33;97599.58;;;18.01;56.98
50011;BME280;35899;50.352;19.390;2022-10-15T13:30:09;97602.83;;;17.87;57.45
50011;BME280;35899;50.352;19.390;2022-10-15T13:32:54;97606.22;;;17.71;57.97
50011;BME280;35899;50.352;19.390;2022-10-15T13:35:27;97607.48;;;17.58;58.72
50011;BME280;35899;50.352;19.390;2022-10-15T13:37:57;97606.14;;;17.42;58.71
50011;BME280;35899;50.352;19.390;2022-10-15T13:40:29;97604.77;;;17.30;59.13
50011;BME280;35899;50.352;19.390;2022-10-15T13:43:12;97606.19;;;17.16;59.70
50011;BME280;35899;50.352;19.390;2022-10-15T13:45:44;97609.53;;;17.00;60.42
50011;BME280;35899;50.352;19.390;2022-10-15T13:48:24;97603.59;;;16.90;60.93
50011;BME280;35899;50.352;19.390;2022-10-15T13:51:02;97604.77;;;16.73;61.26
50011;BME280;35899;50.352;19.390;2022-10-15T13:53:35;97600.92;;;16.59;61.77
50011;BME280;35899;50.352;19.390;2022-10-15T13:58:54;97601.00;;;16.46;61.97
50011;BME280;35899;50.352;19.390;2022-10-15T14:01:24;97607.02;;;16.42;62.37
50011;BME280;35899;50.352;19.390;2022-10-15T14:03:59;97609.30;;;16.41;63.14
50011;BME280;35899;50.352;19.390;2022-10-15T14:06:30;97616.31;;;16.36;63.13
50011;BME280;35899;50.352;19.390;2022-10-15T14:11:51;97608.05;;;16.27;63.62
50011;BME280;35899;50.352;19.390;2022-10-15T14:14:31;97605.55;;;16.21;64.19
50011;BME280;35899;50.352;19.390;2022-10-15T14:19:34;97609.06;;;16.12;64.45
50011;BME280;35899;50.352;19.390;2022-10-15T14:22:03;97603.94;;;16.07;64.40
50011;BME280;35899;50.352;19.390;2022-10-15T14:24:36;97609.29;;;16.01;64.52
50011;BME280;35899;50.352;19.390;2022-10-15T14:27:12;97610.11;;;15.97;63.91
50011;BME280;35899;50.352;19.390;2022-10-15T14:29:42;97609.75;;;15.96;63.92
50011;BME280;35899;50.352;19.390;2022-10-15T14:34:59;97616.76;;;15.92;63.74
50011;BME280;35899;50.352;19.390;2022-10-15T14:42:43;97618.84;;;16.06;63.81
50011;BME280;35899;50.352;19.390;2022-10-15T14:47:50;97611.80;;;16.07;63.32
50011;BME280;35899;50.352;19.390;2022-10-15T14:52:56;97612.41;;;16.00;63.70
50011;BME280;35899;50.352;19.390;2022-10-15T14:55:32;97622.73;;;16.02;63.57
50011;BME280;35899;50.352;19.390;2022-10-15T14:58:09;97620.58;;;15.97;63.62
50011;BME280;35899;50.352;19.390;2022-10-15T15:00:41;97618.77;;;15.98;63.66
50011;BME280;35899;50.352;19.390;2022-10-15T15:03:13;97613.67;;;15.96;63.55
50011;BME280;35899;50.352;19.390;2022-10-15T15:05:47;97617.95;;;15.97;63.40
50011;BME280;35899;50.352;19.390;2022-10-15T15:08:20;97614.64;;;15.95;63.54
50011;BME280;35899;50.352;19.390;2022-10-15T15:10:49;97619.52;;;15.90;63.91
50011;BME280;35899;50.352;19.390;2022-10-15T15:13:22;97624.61;;;15.78;63.82
50011;BME280;35899;50.352;19.390;2022-10-15T15:15:50;97633.13;;;15.66;63.81
50011;BME280;35899;50.352;19.390;2022-10-15T15:18:18;97628.23;;;15.53;63.93
50011;BME280;35899;50.352;19.390;2022-10-15T15:20:47;97630.77;;;15.45;64.13
50011;BME280;35899;50.352;19.390;2022-10-15T15:23:20;97627.53;;;15.33;64.09
50011;BME280;35899;50.352;19.390;2022-10-15T15:25:50;97634.57;;;15.23;64.43
50011;BME280;35899;50.352;19.390;2022-10-15T15:28:20;97635.47;;;15.14;64.50
50011;BME280;35899;50.352;19.390;2022-10-15T15:30:58;97632.26;;;15.06;64.81
50011;BME280;35899;50.352;19.390;2022-10-15T15:33:27;97632.80;;;15.00;65.29
50011;BME280;35899;50.352;19.390;2022-10-15T15:36:05;97624.51;;;14.91;65.69
50011;BME280;35899;50.352;19.390;2022-10-15T15:38:37;97629.31;;;14.81;65.92
50011;BME280;35899;50.352;19.390;2022-10-15T15:41:11;97636.88;;;14.75;66.26
50011;BME280;35899;50.352;19.390;2022-10-15T15:43:42;97637.08;;;14.68;66.53
50011;BME280;35899;50.352;19.390;2022-10-15T15:46:10;97633.87;;;14.60;66.69
50011;BME280;35899;50.352;19.390;2022-10-15T15:48:37;97633.37;;;14.51;66.89
50011;BME280;35899;50.352;19.390;2022-10-15T15:53:49;97636.55;;;14.35;67.45
50011;BME280;35899;50.352;19.390;2022-10-15T15:56:16;97632.64;;;14.25;67.73
50011;BME280;35899;50.352;19.390;2022-10-15T15:58:44;97636.44;;;14.17;68.12
50011;BME280;35899;50.352;19.390;2022-10-15T16:01:11;97632.23;;;14.10;68.34
50011;BME280;35899;50.352;19.390;2022-10-15T16:03:38;97629.81;;;14.03;68.61
50011;BME280;35899;50.352;19.390;2022-10-15T16:06:06;97638.55;;;13.98;68.94
50011;BME280;35899;50.352;19.390;2022-10-15T16:08:35;97640.87;;;13.91;69.25
50011;BME280;35899;50.352;19.390;2022-10-15T16:11:04;97642.03;;;13.83;69.29